Pagrindinis puslapis
METAR-TAF:

METAR-TAF

Oro uostai :

Erbilis, Irakas

platuma: 36-14-15N, ilguma: 43-57-47E, Aukštis: 415 m

Dabartinis oras

Ataskaita buvo paskelbta 24 minutes, ne 22:00 UTC
Vėjas 6 kt iš Rytų
Temperatūra 24°C
Drėgmė 19%
Slėgis 1009 hPa
Matomumas: 8000 m

METAR: ORER 172200Z 08006KT 8000 NSC 24/M01 Q1009 NOSIG

Laikas: 01:24 (22:24 UTC)

Prognozė

Ataskaita buvo paskelbta 5 valandos ir 24 minutes, ne 17:00 UTC
Prognozė galioja nuo 17 metu 18 UTC su 18 metu 18 UTC
Vėjas 6 kt iš Vakarų/Šiaurės Vakarų
Matomumas 10 km arba daugiau
nėra debesų žemiau 1500 m ir nėra kamuolinių lietaus debesų

TAF: ORER 171700Z 1718/1818 29006KT CAVOK

Orai ataskaitas ir orų prognozės (METAR, TAF).

turimą stotys yra geltonos ir raudonos taškus žemėlapyje.

Perkelti pele per norėdami pamatyti stoties vardą.

Tada spustelėkite, norėdami matyti oro stebėjimo ir prognozės.

Norėdami pakeisti žemėlapį: spustelėkite ant žalios mygtukų su juodo kryžiaus žemyn,; žalią mygtuką su brūkšneliu, jei norite nutolinti; arba žalių rodyklių gretimoms žemėlapius.


METAR-TAF: